createdAt,value
2022-08-23T00:00:19.860Z,3.97
2022-08-23T00:03:02.688Z,4.80
2022-08-23T00:05:47.620Z,5.32
2022-08-23T00:08:30.774Z,4.63
2022-08-23T00:11:27.250Z,2.97
2022-08-23T00:14:12.895Z,3.10
2022-08-23T00:16:56.254Z,4.15
2022-08-23T00:19:39.826Z,5.78
2022-08-23T00:22:22.701Z,3.47
2022-08-23T00:25:06.028Z,4.90
2022-08-23T00:27:50.177Z,4.60
2022-08-23T00:30:33.309Z,4.30
2022-08-23T00:33:17.885Z,2.03
2022-08-23T00:36:00.984Z,6.32
2022-08-23T00:38:43.816Z,4.25
2022-08-23T00:41:27.240Z,2.85
2022-08-23T00:44:32.992Z,1.52
2022-08-23T00:47:39.148Z,2.38
2022-08-23T00:50:24.424Z,2.38
2022-08-23T00:53:11.351Z,3.10
2022-08-23T00:55:58.270Z,4.20
2022-08-23T00:58:42.952Z,2.90
2022-08-23T01:01:27.645Z,4.57
2022-08-23T01:04:12.640Z,2.75
2022-08-23T01:06:57.097Z,2.50
2022-08-23T01:09:42.191Z,3.33
2022-08-23T01:12:32.735Z,4.07
2022-08-23T01:15:18.555Z,2.92
2022-08-23T01:18:04.662Z,3.20
2022-08-23T01:20:52.382Z,2.72
2022-08-23T01:23:38.705Z,3.97
2022-08-23T01:26:22.837Z,4.13
2022-08-23T01:29:08.102Z,2.47
2022-08-23T01:31:51.236Z,4.47
2022-08-23T01:34:34.653Z,2.50
2022-08-23T01:37:20.354Z,2.80
2022-08-23T01:40:05.369Z,4.43
2022-08-23T01:42:49.513Z,3.03
2022-08-23T01:45:33.685Z,3.30
2022-08-23T01:48:17.758Z,3.33
2022-08-23T01:51:00.703Z,3.83
2022-08-23T01:53:46.574Z,3.33
2022-08-23T01:56:38.613Z,4.10
2022-08-23T01:59:25.249Z,4.75
2022-08-23T02:02:10.208Z,2.15
2022-08-23T02:04:53.099Z,1.83
2022-08-23T02:07:36.308Z,2.35
2022-08-23T02:10:20.022Z,3.05
2022-08-23T02:13:04.373Z,3.60
2022-08-23T02:15:51.568Z,2.72
2022-08-23T02:18:34.743Z,2.33
2022-08-23T02:21:17.742Z,1.80
2022-08-23T02:24:01.282Z,3.10
2022-08-23T02:26:47.363Z,3.33
2022-08-23T02:29:39.866Z,3.28
2022-08-23T02:32:27.006Z,3.88
2022-08-23T02:35:10.866Z,3.30
2022-08-23T02:37:53.782Z,5.45
2022-08-23T02:40:37.215Z,2.20
2022-08-23T02:43:20.135Z,5.25
2022-08-23T02:46:08.706Z,4.78
2022-08-23T02:48:51.579Z,2.45
2022-08-23T02:51:34.832Z,4.30
2022-08-23T02:54:17.659Z,3.63
2022-08-23T02:57:00.578Z,2.42
2022-08-23T02:59:43.506Z,3.60
2022-08-23T03:02:28.361Z,4.63
2022-08-23T03:05:11.446Z,3.47
2022-08-23T03:07:54.610Z,5.90
2022-08-23T03:10:38.649Z,4.38
2022-08-23T03:13:21.879Z,2.95
2022-08-23T03:16:08.591Z,4.45
2022-08-23T03:18:53.334Z,3.80
2022-08-23T03:21:36.562Z,3.83
2022-08-23T03:24:19.710Z,3.95
2022-08-23T03:27:02.528Z,2.55
2022-08-23T03:29:45.554Z,3.08
2022-08-23T03:32:28.622Z,3.67
2022-08-23T03:35:15.196Z,4.75
2022-08-23T03:37:58.701Z,3.45
2022-08-23T03:40:41.827Z,2.90
2022-08-23T03:43:24.639Z,7.57
2022-08-23T03:46:23.053Z,4.05
2022-08-23T03:49:10.140Z,3.10
2022-08-23T03:52:14.863Z,2.95
2022-08-23T03:54:58.412Z,3.53
2022-08-23T03:57:43.365Z,4.35
2022-08-23T04:00:26.713Z,2.25
2022-08-23T04:03:10.245Z,3.30
2022-08-23T04:06:12.712Z,5.63
2022-08-23T04:08:57.488Z,3.67
2022-08-23T04:11:40.878Z,4.90
2022-08-23T04:14:24.515Z,2.55
2022-08-23T04:17:07.692Z,2.38
2022-08-23T04:19:50.755Z,5.18
2022-08-23T04:22:34.881Z,3.63
2022-08-23T04:25:33.559Z,3.08
2022-08-23T04:28:18.367Z,3.00
2022-08-23T04:31:04.668Z,4.55
2022-08-23T04:33:52.504Z,3.55
2022-08-23T04:36:36.949Z,3.63
2022-08-23T04:39:20.090Z,4.97
2022-08-23T04:42:19.307Z,2.83
2022-08-23T04:45:04.949Z,4.53
2022-08-23T04:47:49.415Z,4.28
2022-08-23T04:50:32.872Z,3.85
2022-08-23T04:53:35.313Z,3.25
2022-08-23T04:56:37.227Z,2.65
2022-08-23T04:59:21.781Z,4.35
2022-08-23T05:02:05.473Z,5.22
2022-08-23T05:04:48.298Z,3.45
2022-08-23T05:07:42.481Z,3.95
2022-08-23T05:10:26.374Z,2.72
2022-08-23T05:13:10.057Z,3.15
2022-08-23T05:15:54.416Z,2.80
2022-08-23T05:18:41.322Z,3.63
2022-08-23T05:21:25.886Z,3.75
2022-08-23T05:24:08.965Z,3.03
2022-08-23T05:26:57.385Z,4.22
2022-08-23T05:29:40.613Z,1.95
2022-08-23T05:32:25.136Z,3.33
2022-08-23T05:35:08.261Z,3.10
2022-08-23T05:37:53.947Z,3.95
2022-08-23T05:40:36.858Z,4.38
2022-08-23T05:43:25.961Z,2.92
2022-08-23T05:46:12.993Z,2.85
2022-08-23T05:49:01.492Z,5.97
2022-08-23T05:51:44.306Z,3.30
2022-08-23T05:54:35.025Z,2.50
2022-08-23T05:57:36.603Z,2.58
2022-08-23T06:00:19.495Z,5.75
2022-08-23T06:03:02.311Z,2.92
2022-08-23T06:05:46.859Z,3.70
2022-08-23T06:08:30.192Z,3.38
2022-08-23T06:11:15.364Z,3.35
2022-08-23T06:14:00.404Z,4.32
2022-08-23T06:16:47.659Z,2.42
2022-08-23T06:19:35.188Z,2.67
2022-08-23T06:22:42.685Z,2.42
2022-08-23T06:25:25.583Z,3.60
2022-08-23T06:28:13.533Z,2.05
2022-08-23T06:30:58.523Z,3.38
2022-08-23T06:33:46.298Z,3.55
2022-08-23T06:37:02.850Z,3.83
2022-08-23T06:40:13.761Z,4.75
2022-08-23T06:43:04.648Z,5.97
2022-08-23T06:46:13.920Z,3.72
2022-08-23T06:49:00.884Z,2.28
2022-08-23T06:51:45.224Z,2.47
2022-08-23T06:54:34.392Z,5.70
2022-08-23T06:57:37.475Z,3.33
2022-08-23T07:00:51.535Z,2.85
2022-08-23T07:03:43.082Z,3.70
2022-08-23T07:06:44.372Z,3.70
2022-08-23T07:09:27.525Z,3.47
2022-08-23T07:12:11.053Z,1.55
2022-08-23T07:14:58.175Z,3.03
2022-08-23T07:17:41.807Z,4.72
2022-08-23T07:20:25.377Z,3.92
2022-08-23T07:23:08.301Z,3.92
2022-08-23T07:25:52.324Z,2.85
2022-08-23T07:28:39.189Z,3.05
2022-08-23T07:31:24.289Z,2.47
2022-08-23T07:34:07.179Z,2.80
2022-08-23T07:36:53.316Z,2.55
2022-08-23T07:39:36.210Z,3.47
2022-08-23T07:42:23.560Z,2.13
2022-08-23T07:45:12.972Z,2.85
2022-08-23T07:47:57.697Z,0.52
2022-08-23T07:50:54.582Z,1.75
2022-08-23T07:53:46.028Z,0.20
2022-08-23T07:56:31.957Z,0.30
2022-08-23T07:59:34.677Z,2.75
2022-08-23T08:02:35.016Z,1.85
2022-08-23T08:05:21.939Z,2.63
2022-08-23T08:08:07.104Z,1.98
2022-08-23T08:10:55.155Z,1.58
2022-08-23T08:13:38.632Z,1.00
2022-08-23T08:16:23.944Z,0.20
2022-08-23T08:19:09.225Z,0.20
2022-08-23T08:22:13.248Z,0.40
2022-08-23T08:25:15.310Z,0.10
2022-08-23T08:27:59.235Z,0.10
2022-08-23T08:30:42.170Z,0.10
2022-08-23T08:33:25.094Z,0.10
2022-08-23T08:36:28.586Z,0.20
2022-08-23T08:39:14.798Z,0.10
2022-08-23T08:42:10.093Z,0.10
2022-08-23T08:44:56.279Z,0.20
2022-08-23T08:47:46.676Z,0.17
2022-08-23T08:50:33.919Z,0.10
2022-08-23T08:53:22.983Z,0.10
2022-08-23T08:56:32.357Z,0.17
2022-08-23T08:59:43.822Z,0.10
2022-08-23T09:02:33.636Z,0.13
2022-08-23T09:05:24.483Z,0.10
2022-08-23T09:08:15.263Z,0.10
2022-08-23T09:11:08.246Z,0.20
2022-08-23T09:14:01.314Z,0.10
2022-08-23T09:16:51.375Z,0.10
2022-08-23T09:19:35.644Z,0.45
2022-08-23T09:22:21.712Z,0.10
2022-08-23T09:25:04.837Z,0.13
2022-08-23T09:28:00.152Z,0.10
2022-08-23T09:30:49.265Z,0.10
2022-08-23T09:33:38.589Z,0.10
2022-08-23T09:36:23.575Z,0.10
2022-08-23T09:39:30.327Z,0.10
2022-08-23T09:42:27.888Z,0.10
2022-08-23T09:45:26.533Z,0.20
2022-08-23T09:48:15.414Z,0.28
2022-08-23T09:51:12.458Z,0.10
2022-08-23T09:54:05.553Z,0.10
2022-08-23T09:56:52.138Z,0.10
2022-08-23T09:59:39.505Z,0.10
2022-08-23T10:02:30.461Z,0.10
2022-08-23T10:05:29.853Z,0.10
2022-08-23T10:08:22.940Z,0.10
2022-08-23T10:11:12.660Z,0.10
2022-08-23T10:13:56.995Z,0.10
2022-08-23T10:16:42.096Z,0.13
2022-08-23T10:19:31.106Z,0.15
2022-08-23T10:22:18.809Z,0.28
2022-08-23T10:25:26.947Z,0.10
2022-08-23T10:28:35.695Z,0.10
2022-08-23T10:31:25.938Z,0.20
2022-08-23T10:34:17.939Z,0.10
2022-08-23T10:37:09.460Z,0.20
2022-08-23T10:40:01.596Z,0.10
2022-08-23T10:42:53.763Z,0.10
2022-08-23T10:45:37.211Z,0.10
2022-08-23T10:48:29.513Z,0.10
2022-08-23T10:51:21.208Z,0.10
2022-08-23T10:54:08.826Z,0.20
2022-08-23T10:56:53.589Z,0.13
2022-08-23T10:59:38.143Z,0.10
2022-08-23T11:02:24.146Z,0.10
2022-08-23T11:05:22.071Z,0.10
2022-08-23T11:08:05.827Z,0.10
2022-08-23T11:10:53.758Z,0.10
2022-08-23T11:13:53.073Z,0.10
2022-08-23T11:16:38.451Z,0.10
2022-08-23T11:19:41.351Z,0.10
2022-08-23T11:22:25.166Z,0.10
2022-08-23T11:25:30.318Z,0.10
2022-08-23T11:28:37.813Z,0.10
2022-08-23T11:31:23.233Z,0.10
2022-08-23T11:34:08.138Z,0.63
2022-08-23T11:37:06.164Z,0.10
2022-08-23T11:40:13.632Z,0.20
2022-08-23T11:43:04.530Z,0.10
2022-08-23T11:45:49.299Z,0.13
2022-08-23T11:48:43.832Z,0.20
2022-08-23T11:51:33.804Z,0.10
2022-08-23T11:54:34.202Z,0.10
2022-08-23T11:57:20.910Z,0.28
2022-08-23T12:00:08.202Z,0.10
2022-08-23T12:03:02.224Z,0.10
2022-08-23T12:06:04.171Z,0.10
2022-08-23T12:09:01.650Z,0.10
2022-08-23T12:12:00.833Z,0.10
2022-08-23T12:14:52.236Z,0.10
2022-08-23T12:17:54.095Z,0.10
2022-08-23T12:20:38.419Z,0.10
2022-08-23T12:23:21.963Z,0.80
2022-08-23T12:26:12.161Z,0.20
2022-08-23T12:28:57.738Z,0.10
2022-08-23T12:31:45.794Z,0.10
2022-08-23T12:34:33.678Z,0.10
2022-08-23T12:37:21.343Z,0.10
2022-08-23T12:40:09.140Z,0.10
2022-08-23T12:42:52.457Z,0.10
2022-08-23T12:45:39.248Z,0.10
2022-08-23T12:48:24.613Z,0.10
2022-08-23T12:51:17.111Z,0.10
2022-08-23T12:54:12.760Z,0.10
2022-08-23T12:56:55.855Z,0.10
2022-08-23T12:59:40.840Z,0.10
2022-08-23T13:02:26.524Z,0.10
2022-08-23T13:05:13.477Z,0.10
2022-08-23T13:07:56.797Z,0.10
2022-08-23T13:10:43.123Z,0.10
2022-08-23T13:13:26.856Z,0.10
2022-08-23T13:16:27.508Z,0.10
2022-08-23T13:19:15.479Z,0.10
2022-08-23T13:22:11.393Z,0.10
2022-08-23T13:25:26.761Z,0.10
2022-08-23T13:28:07.853Z,0.10
2022-08-23T13:30:59.041Z,0.28
2022-08-23T13:33:41.992Z,0.13
2022-08-23T13:36:28.176Z,0.20
2022-08-23T13:39:11.205Z,0.10
2022-08-23T13:41:54.134Z,0.10
2022-08-23T13:44:38.662Z,0.10
2022-08-23T13:47:23.935Z,0.15
2022-08-23T13:50:15.688Z,0.10
2022-08-23T13:53:15.388Z,0.10
2022-08-23T13:56:00.125Z,0.10
2022-08-23T13:58:43.281Z,0.10
2022-08-23T14:01:27.602Z,0.10
2022-08-23T14:04:10.340Z,0.10
2022-08-23T14:06:53.177Z,0.10
2022-08-23T14:09:36.692Z,0.10
2022-08-23T14:12:21.877Z,0.10
2022-08-23T14:15:05.462Z,0.10
2022-08-23T14:17:51.499Z,0.10
2022-08-23T14:20:43.965Z,0.10
2022-08-23T14:23:27.921Z,0.10
2022-08-23T14:26:15.427Z,0.10
2022-08-23T14:28:58.232Z,0.10
2022-08-23T14:31:41.368Z,0.10
2022-08-23T14:34:25.533Z,0.10
2022-08-23T14:40:11.984Z,0.10
2022-08-23T14:42:54.878Z,0.10
2022-08-23T14:45:37.749Z,0.10
2022-08-23T14:48:20.910Z,0.10
2022-08-23T14:51:09.626Z,0.10
2022-08-23T14:53:52.750Z,0.10
2022-08-23T14:56:35.761Z,0.10
2022-08-23T14:59:21.846Z,0.10
2022-08-23T15:02:05.300Z,0.10
2022-08-23T15:04:48.148Z,0.10
2022-08-23T15:07:32.254Z,0.10
2022-08-23T15:13:26.904Z,0.10
2022-08-23T15:16:12.517Z,0.10
2022-08-23T15:18:56.005Z,0.10
2022-08-23T15:21:38.739Z,0.10
2022-08-23T15:24:23.152Z,0.40
2022-08-23T15:27:06.174Z,0.10
2022-08-23T15:29:49.065Z,0.10
2022-08-23T15:32:32.515Z,0.10
2022-08-23T15:35:16.211Z,0.10
2022-08-23T15:37:59.907Z,0.10
2022-08-23T15:40:44.346Z,0.10
2022-08-23T15:43:33.896Z,0.10
2022-08-23T15:46:19.152Z,0.10
2022-08-23T15:49:04.446Z,0.10
2022-08-23T15:51:47.295Z,0.10
2022-08-23T15:54:30.135Z,0.10
2022-08-23T15:57:17.097Z,0.10
2022-08-23T15:59:59.930Z,0.10
2022-08-23T16:03:06.598Z,0.10
2022-08-23T16:05:47.282Z,0.10
2022-08-23T16:08:31.437Z,0.20
2022-08-23T16:11:14.443Z,0.10
2022-08-23T16:13:58.891Z,0.10
2022-08-23T16:16:42.117Z,0.10
2022-08-23T16:19:25.438Z,0.10
2022-08-23T16:22:08.364Z,0.10
2022-08-23T16:24:51.281Z,0.17
2022-08-23T16:27:34.162Z,0.10
2022-08-23T16:30:18.748Z,0.10
2022-08-23T16:33:02.024Z,0.10
2022-08-23T16:35:45.068Z,0.10
2022-08-23T16:38:28.162Z,0.10
2022-08-23T16:41:13.941Z,0.17
2022-08-23T16:43:56.716Z,0.40
2022-08-23T16:46:42.850Z,0.32
2022-08-23T16:49:25.805Z,0.20
2022-08-23T16:52:08.572Z,0.30
2022-08-23T16:54:51.610Z,0.22
2022-08-23T16:57:34.483Z,0.10
2022-08-23T17:00:17.552Z,0.13
2022-08-23T17:03:02.421Z,0.20
2022-08-23T17:05:45.729Z,0.17
2022-08-23T17:08:28.511Z,0.10
2022-08-23T17:11:12.852Z,0.55
2022-08-23T17:13:55.688Z,0.30
2022-08-23T17:16:39.690Z,0.10
2022-08-23T17:19:23.980Z,0.10
2022-08-23T17:22:07.150Z,0.10
2022-08-23T17:24:50.029Z,0.10
2022-08-23T17:27:36.313Z,0.77
2022-08-23T17:30:20.980Z,0.30
2022-08-23T17:33:04.055Z,0.20
2022-08-23T17:35:48.354Z,0.80
2022-08-23T17:38:31.651Z,0.60
2022-08-23T17:41:14.476Z,1.60
2022-08-23T17:43:58.260Z,0.35
2022-08-23T17:46:42.431Z,1.17
2022-08-23T17:49:25.409Z,0.20
2022-08-23T17:52:11.532Z,0.30
2022-08-23T17:54:54.635Z,0.30
2022-08-23T17:57:37.741Z,0.90
2022-08-23T18:00:20.689Z,0.80
2022-08-23T18:03:04.181Z,1.67
2022-08-23T18:05:47.327Z,1.40
2022-08-23T18:08:31.410Z,4.40
2022-08-23T18:11:14.692Z,2.05
2022-08-23T18:13:57.507Z,2.67
2022-08-23T18:16:40.453Z,4.32
2022-08-23T18:19:26.726Z,2.13
2022-08-23T18:22:09.751Z,2.58
2022-08-23T18:24:53.898Z,2.25
2022-08-23T18:27:54.623Z,1.83
2022-08-23T18:30:38.067Z,2.33
2022-08-23T18:33:25.284Z,2.45
2022-08-23T18:36:14.341Z,3.17
2022-08-23T18:38:57.622Z,2.58
2022-08-23T18:41:42.098Z,2.40
2022-08-23T18:44:25.280Z,1.88
2022-08-23T18:47:08.344Z,2.03
2022-08-23T18:49:51.190Z,2.28
2022-08-23T18:52:34.345Z,3.03
2022-08-23T18:55:20.353Z,2.40
2022-08-23T18:58:04.871Z,2.25
2022-08-23T19:00:49.330Z,2.33
2022-08-23T19:03:34.054Z,4.72
2022-08-23T19:06:17.030Z,4.22
2022-08-23T19:09:01.094Z,3.03
2022-08-23T19:11:44.738Z,1.35
2022-08-23T19:14:29.548Z,1.30
2022-08-23T19:17:12.353Z,2.13
2022-08-23T19:19:55.284Z,1.65
2022-08-23T19:22:38.320Z,1.48
2022-08-23T19:25:21.658Z,2.90
2022-08-23T19:28:05.474Z,1.45
2022-08-23T19:30:51.809Z,2.72
2022-08-23T19:33:35.274Z,4.57
2022-08-23T19:36:42.788Z,1.55
2022-08-23T19:39:21.140Z,2.33
2022-08-23T19:42:07.421Z,1.67
2022-08-23T19:44:52.645Z,2.45
2022-08-23T19:47:36.754Z,1.52
2022-08-23T19:50:20.608Z,2.33
2022-08-23T19:53:07.134Z,1.33
2022-08-23T19:55:50.101Z,4.75
2022-08-23T19:58:32.845Z,1.65
2022-08-23T20:01:15.789Z,2.92
2022-08-23T20:04:00.199Z,1.35
2022-08-23T20:06:42.978Z,2.15
2022-08-23T20:09:26.691Z,4.30
2022-08-23T20:12:09.577Z,0.93
2022-08-23T20:14:53.279Z,1.55
2022-08-23T20:17:37.031Z,1.50
2022-08-23T20:20:21.711Z,3.50
2022-08-23T20:23:22.044Z,1.08
2022-08-23T20:26:04.842Z,3.30
2022-08-23T20:28:58.960Z,2.70
2022-08-23T20:31:48.217Z,2.03
2022-08-23T20:34:31.305Z,1.63
2022-08-23T20:37:15.511Z,1.67
2022-08-23T20:39:58.396Z,2.15
2022-08-23T20:42:41.478Z,2.05
2022-08-23T20:45:24.347Z,2.97
2022-08-23T20:48:08.540Z,3.25
2022-08-23T20:50:53.883Z,2.85
2022-08-23T20:53:38.110Z,5.72
2022-08-23T20:56:21.155Z,1.55
2022-08-23T20:59:04.455Z,4.20
2022-08-23T21:01:47.206Z,3.03
2022-08-23T21:04:30.583Z,3.22
2022-08-23T21:07:13.485Z,2.03
2022-08-23T21:09:58.283Z,4.00
2022-08-23T21:12:41.309Z,2.65
2022-08-23T21:15:24.381Z,1.70
2022-08-23T21:18:07.235Z,2.72
2022-08-23T21:20:50.155Z,2.55
2022-08-23T21:23:33.451Z,2.42
2022-08-23T21:26:18.170Z,3.85
2022-08-23T21:29:01.373Z,5.57
2022-08-23T21:31:44.391Z,3.00
2022-08-23T21:34:31.000Z,2.60
2022-08-23T21:37:13.916Z,2.60
2022-08-23T21:39:56.909Z,2.65
2022-08-23T21:42:41.347Z,3.80
2022-08-23T21:45:24.415Z,2.15
2022-08-23T21:48:08.001Z,2.47
2022-08-23T21:50:51.244Z,2.10
2022-08-23T21:53:33.976Z,2.17
2022-08-23T21:56:16.893Z,1.88
2022-08-23T21:59:01.356Z,2.42
2022-08-23T22:01:44.255Z,1.23
2022-08-23T22:04:27.127Z,2.42
2022-08-23T22:07:10.019Z,3.03
2022-08-23T22:09:52.831Z,1.10
2022-08-23T22:12:35.781Z,1.88
2022-08-23T22:15:19.931Z,1.65
2022-08-23T22:18:03.512Z,1.58
2022-08-23T22:20:46.303Z,2.38
2022-08-23T22:23:30.124Z,5.15
2022-08-23T22:26:13.855Z,1.95
2022-08-23T22:28:57.209Z,2.65
2022-08-23T22:31:41.772Z,2.05
2022-08-23T22:34:25.384Z,2.70
2022-08-23T22:37:10.959Z,3.70
2022-08-23T22:39:56.140Z,2.35
2022-08-23T22:42:39.090Z,5.50
2022-08-23T22:45:22.715Z,2.80
2022-08-23T22:48:06.872Z,1.73
2022-08-23T22:50:49.836Z,3.53
2022-08-23T22:53:32.733Z,2.63
2022-08-23T22:56:17.811Z,1.60
2022-08-23T22:59:00.605Z,2.28
2022-08-23T23:01:44.624Z,3.08
2022-08-23T23:04:29.433Z,2.13
2022-08-23T23:07:12.431Z,2.35
2022-08-23T23:09:55.179Z,2.08
2022-08-23T23:12:38.298Z,1.42
2022-08-23T23:15:21.283Z,1.98
2022-08-23T23:18:04.458Z,1.80
2022-08-23T23:20:48.657Z,1.70
2022-08-23T23:23:32.405Z,2.40
2022-08-23T23:26:15.158Z,2.17
2022-08-23T23:28:58.351Z,1.58
2022-08-23T23:31:41.202Z,4.05
2022-08-23T23:34:25.187Z,2.63
2022-08-23T23:37:09.274Z,1.27
2022-08-23T23:39:53.667Z,1.40
2022-08-23T23:42:36.514Z,1.63
2022-08-23T23:45:19.948Z,1.88
2022-08-23T23:48:02.876Z,1.25
2022-08-23T23:50:49.566Z,1.42
2022-08-23T23:53:33.721Z,7.70
2022-08-23T23:56:18.723Z,2.28
2022-08-23T23:59:01.721Z,1.77
